Afton, OK

3:46 PM CST on December 03, 2016 (GMT -0600)
Grand Lake, OK - Beverly Heights, Cleora | | Change Station

Elev 781 ft 36.58 °N, 94.93 °W | Updated 9 seconds ago

Drizzle
Drizzle
48.2 °F
Feels Like 48 °F
N
2.2
Wind Variable Wind from SE

Today
High -- | Low -- °F
--% Chance of Precip.
Yesterday
High -- | Low -- °F
Precip. -- in
Pressure 30.16 in
Visibility 10.0 miles
Clouds Mostly Cloudy 4400 ft
Overcast 5000 ft
Windchill 48 °F
Dew Point 43 °F
Humidity 82%
Rainfall 0.11 in
Snow Depth Not available.
7:15 AM 5:03 PM
Waxing Crescent, 17% visible
METAR KGMJ 032135Z AUTO 10004KT 10SM DZ BKN044 OVC050 09/05 A3016 RMK AO2
Pressure 30.16 in
Visibility 10.0 miles
Clouds Mostly Cloudy 4400 ft
Overcast 5000 ft
Windchill 48 °F
Dew Point 43 °F
Humidity 82%
Rainfall 0.11 in
Snow Depth Not available.
7:15 AM 5:03 PM
Waxing Crescent, 17% visible
METAR KGMJ 032135Z AUTO 10004KT 10SM DZ BKN044 OVC050 09/05 A3016 RMK AO2

10-Day Weather Forecast

Almanac

Astronomy

Dec. 03, 2016 Rise Set
Actual Time
Civil Twilight
Nautical Twilight
Astronomical Twilight
Moon
Length of Visible Light
Length of Day
Tomorrow will be .
, % of the Moon is Illuminated

Today's Extremes

State Highs State Lows

Community

WunderPhotos

Upload Photos

1,955,506 photos uploaded!

WunderBlog® & News

Nearby

Air Quality

  Air Quality AQ Index Pollutant
Not available.

Snow Depth

Station Depth Elevation

Earthquake Activity

City Distance Mag. Time & Date
Minimum magnitude displayed is 2.5.

Coastal Water Temperatures

Place Temperature

Stations

Nearby Weather Stations

Station Location Temp. Windchill Dew Point Humidity Wind Precip. Elev Updated Type
                   

Watches & Warnings

There are currently no watches in effect.